New Bedford, Ohio
Current Conditions -  °F | °C
As of 1:53 PM on Monday 20 Oct 2014 (Local Time) from KPHD Reporting Station
Broken Clouds Broken Clouds  
Wind Chill: 58°   Ceiling: 8500
Heat Index: 58°   Visibility: 10mi
Dew Point: 43°   Wind: 9mph
Humidity: 58%   Direction: 160°SSE
Pressure: 29.91"   Gusts: NA
Location:  40.3648°N, 81.765°W
Report Text: KPHD 201753Z AUTO 16008KT 10SM BKN085 14/06 A2991 RMK AO2 SLP129 T01440061 10144 20072 56024
Loading
Personal Weather Stations






























Interactive Weather Map
Tropical Storm Tracking
New forecast layout! Learn more

10-Day Weather Forecast

Advertisements
Track Severe Weather on mobile